Portada
METAR-TAF:

METAR-TAF

Aeroports :

Al-Riyad, Aràbia Saudita

latitud: 24-56N, longitud: 046-43E, altitud: 614 m

Observació

L'informe es va fer fa 20 minuts, a les 08:00 UTC
Vent calma
Temperatura 28°C
Humitat 20%
Pressió 1017 hPa
Visibilitat 10 km o més
sense núvols per sota de 1500 mi sense presència de cumulonimbus.

METAR: OERK 240800Z 00000KT CAVOK 28/03 Q1017 NOSIG

Hora: 11:20 (08:20 UTC)

Pronòstic

L'informe es va fer fa 3 hores i 20 minuts, a les 05:00 UTC
Pronòstic vàlid del 24 a les 06 UTC al 25 a les 12 UTC
Vent 12 kt del Sud-Est
Visibilitat 10 km o més
sense núvols per sota de 1500 mi sense presència de cumulonimbus.
Evolucionant progressivament
l' 24 a les 17 UTC al 24 a les 19 UTC
Vent 6 kt del Sud/Sud-Oest

TAF: OERK 240500Z 2406/2512 14012KT CAVOK BECMG 2417/2419 20006KT

Observacions i pronòstics meteorològics de més de 4000 aeroports (METAR i TAF).

Les estacions disponibles són els punts grocs i vermells al mapa.

Posi el ratolí al punt desitjat per veure el nom de l'estació.

Feu clic per veure les observacions i els pronòstics meteorològics.

Per canviar el mapa: feu clic els botons verds amb una creu de color negre per apropar; al botó verd amb un guió per allunyar la imatge; o en les fletxes verdes per a mapes adjacents.


METAR-TAF: